sensor_id;sensor_type;location;lat;lon;timestamp;P1;durP1;ratioP1;P2;durP2;ratioP2
30613;SDS011;17381;51.690;5.270;2022-08-03T00:42:58;4.93;;;1.42;;
30613;SDS011;17381;51.690;5.270;2022-08-03T00:45:52;2.33;;;0.85;;
30613;SDS011;17381;51.690;5.270;2022-08-03T00:48:56;3.22;;;0.63;;
30613;SDS011;17381;51.690;5.270;2022-08-03T00:55:18;3.63;;;1.27;;
30613;SDS011;17381;51.690;5.270;2022-08-03T01:39:14;3.40;;;1.20;;
30613;SDS011;17381;51.690;5.270;2022-08-03T02:58:49;7.25;;;1.90;;
30613;SDS011;17381;51.690;5.270;2022-08-03T04:29:23;6.85;;;1.70;;
30613;SDS011;17381;51.690;5.270;2022-08-03T04:48:38;7.00;;;2.00;;
30613;SDS011;17381;51.690;5.270;2022-08-03T04:51:52;6.00;;;1.80;;
30613;SDS011;17381;51.690;5.270;2022-08-03T04:54:56;8.27;;;2.10;;
30613;SDS011;17381;51.690;5.270;2022-08-03T04:57:45;5.35;;;1.90;;
30613;SDS011;17381;51.690;5.270;2022-08-03T05:00:34;4.63;;;2.33;;
30613;SDS011;17381;51.690;5.270;2022-08-03T05:03:06;5.97;;;1.67;;
30613;SDS011;17381;51.690;5.270;2022-08-03T05:06:11;4.50;;;2.08;;
30613;SDS011;17381;51.690;5.270;2022-08-03T05:08:58;3.90;;;1.83;;
30613;SDS011;17381;51.690;5.270;2022-08-03T05:11:45;6.65;;;2.03;;
30613;SDS011;17381;51.690;5.270;2022-08-03T05:14:35;4.80;;;1.67;;
30613;SDS011;17381;51.690;5.270;2022-08-03T05:17:22;7.05;;;2.08;;
30613;SDS011;17381;51.690;5.270;2022-08-03T05:20:18;2.92;;;1.38;;
30613;SDS011;17381;51.690;5.270;2022-08-03T05:23:19;7.23;;;2.10;;
30613;SDS011;17381;51.690;5.270;2022-08-03T05:26:11;4.63;;;1.85;;
30613;SDS011;17381;51.690;5.270;2022-08-03T05:29:07;6.32;;;2.17;;
30613;SDS011;17381;51.690;5.270;2022-08-03T05:32:11;10.23;;;2.40;;
30613;SDS011;17381;51.690;5.270;2022-08-03T05:35:22;5.53;;;1.73;;
30613;SDS011;17381;51.690;5.270;2022-08-03T05:38:15;9.32;;;2.40;;
30613;SDS011;17381;51.690;5.270;2022-08-03T05:40:48;6.88;;;2.13;;
30613;SDS011;17381;51.690;5.270;2022-08-03T05:43:35;5.90;;;2.33;;
30613;SDS011;17381;51.690;5.270;2022-08-03T05:46:17;4.72;;;1.58;;
30613;SDS011;17381;51.690;5.270;2022-08-03T05:49:17;9.07;;;2.25;;
30613;SDS011;17381;51.690;5.270;2022-08-03T05:51:44;4.70;;;1.58;;
30613;SDS011;17381;51.690;5.270;2022-08-03T05:54:16;5.95;;;1.52;;
30613;SDS011;17381;51.690;5.270;2022-08-03T05:56:42;7.57;;;2.20;;
30613;SDS011;17381;51.690;5.270;2022-08-03T05:59:24;6.13;;;1.80;;
30613;SDS011;17381;51.690;5.270;2022-08-03T06:02:04;9.27;;;1.63;;
30613;SDS011;17381;51.690;5.270;2022-08-03T06:04:31;7.47;;;1.80;;
30613;SDS011;17381;51.690;5.270;2022-08-03T06:07:02;4.20;;;1.65;;
30613;SDS011;17381;51.690;5.270;2022-08-03T06:09:33;6.60;;;2.17;;
30613;SDS011;17381;51.690;5.270;2022-08-03T06:12:12;7.78;;;1.30;;
30613;SDS011;17381;51.690;5.270;2022-08-03T06:15:23;13.20;;;1.65;;
30613;SDS011;17381;51.690;5.270;2022-08-03T06:18:10;7.30;;;1.63;;
30613;SDS011;17381;51.690;5.270;2022-08-03T06:21:07;3.85;;;1.30;;
30613;SDS011;17381;51.690;5.270;2022-08-03T06:23:44;6.05;;;1.95;;
30613;SDS011;17381;51.690;5.270;2022-08-03T06:26:26;10.23;;;1.80;;
30613;SDS011;17381;51.690;5.270;2022-08-03T06:29:06;10.05;;;2.08;;
30613;SDS011;17381;51.690;5.270;2022-08-03T06:31:39;5.88;;;2.25;;
30613;SDS011;17381;51.690;5.270;2022-08-03T06:34:10;8.43;;;1.58;;
30613;SDS011;17381;51.690;5.270;2022-08-03T06:36:50;9.68;;;2.42;;
30613;SDS011;17381;51.690;5.270;2022-08-03T06:39:27;6.05;;;1.77;;
30613;SDS011;17381;51.690;5.270;2022-08-03T06:42:01;13.15;;;1.35;;
30613;SDS011;17381;51.690;5.270;2022-08-03T06:44:51;10.85;;;2.10;;
30613;SDS011;17381;51.690;5.270;2022-08-03T06:50:17;4.97;;;1.42;;
30613;SDS011;17381;51.690;5.270;2022-08-03T06:52:50;6.57;;;1.17;;
30613;SDS011;17381;51.690;5.270;2022-08-03T06:55:25;7.30;;;1.63;;
30613;SDS011;17381;51.690;5.270;2022-08-03T06:58:01;11.93;;;1.52;;
30613;SDS011;17381;51.690;5.270;2022-08-03T07:00:41;8.57;;;1.27;;
30613;SDS011;17381;51.690;5.270;2022-08-03T07:03:22;4.70;;;1.33;;
30613;SDS011;17381;51.690;5.270;2022-08-03T07:05:54;7.88;;;1.42;;
30613;SDS011;17381;51.690;5.270;2022-08-03T07:11:40;8.95;;;1.65;;
30613;SDS011;17381;51.690;5.270;2022-08-03T07:14:25;7.70;;;1.48;;
30613;SDS011;17381;51.690;5.270;2022-08-03T07:16:54;5.55;;;1.23;;
30613;SDS011;17381;51.690;5.270;2022-08-03T07:19:34;8.20;;;1.70;;
30613;SDS011;17381;51.690;5.270;2022-08-03T07:22:00;9.00;;;1.55;;
30613;SDS011;17381;51.690;5.270;2022-08-03T07:24:32;5.57;;;1.52;;
30613;SDS011;17381;51.690;5.270;2022-08-03T07:27:04;13.75;;;1.30;;
30613;SDS011;17381;51.690;5.270;2022-08-03T07:29:41;7.95;;;1.52;;
30613;SDS011;17381;51.690;5.270;2022-08-03T07:32:16;6.40;;;1.05;;
30613;SDS011;17381;51.690;5.270;2022-08-03T07:34:45;6.70;;;1.98;;
30613;SDS011;17381;51.690;5.270;2022-08-03T07:37:32;5.25;;;1.58;;
30613;SDS011;17381;51.690;5.270;2022-08-03T07:40:15;6.20;;;1.33;;
30613;SDS011;17381;51.690;5.270;2022-08-03T07:42:51;7.03;;;1.48;;
30613;SDS011;17381;51.690;5.270;2022-08-03T07:45:26;6.68;;;1.20;;
30613;SDS011;17381;51.690;5.270;2022-08-03T07:48:02;5.63;;;1.10;;
30613;SDS011;17381;51.690;5.270;2022-08-03T07:50:56;4.32;;;0.80;;
30613;SDS011;17381;51.690;5.270;2022-08-03T07:53:25;7.10;;;1.65;;
30613;SDS011;17381;51.690;5.270;2022-08-03T07:56:06;5.38;;;1.27;;
30613;SDS011;17381;51.690;5.270;2022-08-03T07:58:45;4.57;;;1.25;;
30613;SDS011;17381;51.690;5.270;2022-08-03T08:01:27;3.80;;;1.10;;
30613;SDS011;17381;51.690;5.270;2022-08-03T08:04:03;7.13;;;1.98;;
30613;SDS011;17381;51.690;5.270;2022-08-03T08:06:31;4.85;;;1.02;;
30613;SDS011;17381;51.690;5.270;2022-08-03T08:09:05;5.18;;;1.30;;
30613;SDS011;17381;51.690;5.270;2022-08-03T08:11:43;7.25;;;1.63;;
30613;SDS011;17381;51.690;5.270;2022-08-03T08:14:16;11.05;;;1.45;;
30613;SDS011;17381;51.690;5.270;2022-08-03T08:17:14;8.32;;;1.30;;
30613;SDS011;17381;51.690;5.270;2022-08-03T08:19:48;3.88;;;1.00;;
30613;SDS011;17381;51.690;5.270;2022-08-03T08:22:23;13.10;;;1.80;;
30613;SDS011;17381;51.690;5.270;2022-08-03T08:24:58;7.28;;;1.55;;
30613;SDS011;17381;51.690;5.270;2022-08-03T08:27:24;7.30;;;1.50;;
30613;SDS011;17381;51.690;5.270;2022-08-03T08:30:05;8.13;;;1.35;;
30613;SDS011;17381;51.690;5.270;2022-08-03T08:32:52;4.45;;;1.13;;
30613;SDS011;17381;51.690;5.270;2022-08-03T08:35:36;5.88;;;1.48;;
30613;SDS011;17381;51.690;5.270;2022-08-03T08:38:09;5.20;;;1.35;;
30613;SDS011;17381;51.690;5.270;2022-08-03T08:40:43;8.48;;;2.13;;
30613;SDS011;17381;51.690;5.270;2022-08-03T08:43:24;12.30;;;2.22;;
30613;SDS011;17381;51.690;5.270;2022-08-03T08:46:02;8.93;;;2.00;;
30613;SDS011;17381;51.690;5.270;2022-08-03T08:48:41;7.18;;;1.98;;
30613;SDS011;17381;51.690;5.270;2022-08-03T08:51:21;9.13;;;1.00;;
30613;SDS011;17381;51.690;5.270;2022-08-03T08:54:03;5.82;;;1.23;;
30613;SDS011;17381;51.690;5.270;2022-08-03T08:56:31;6.22;;;1.33;;
30613;SDS011;17381;51.690;5.270;2022-08-03T08:59:10;10.60;;;1.75;;
30613;SDS011;17381;51.690;5.270;2022-08-03T09:01:39;7.43;;;1.48;;
30613;SDS011;17381;51.690;5.270;2022-08-03T09:04:14;8.10;;;1.33;;
30613;SDS011;17381;51.690;5.270;2022-08-03T09:06:51;11.43;;;2.15;;
30613;SDS011;17381;51.690;5.270;2022-08-03T09:09:29;4.93;;;1.20;;
30613;SDS011;17381;51.690;5.270;2022-08-03T09:12:01;5.95;;;1.33;;
30613;SDS011;17381;51.690;5.270;2022-08-03T09:14:36;8.85;;;1.83;;
30613;SDS011;17381;51.690;5.270;2022-08-03T09:17:05;6.55;;;1.38;;
30613;SDS011;17381;51.690;5.270;2022-08-03T09:20:04;5.63;;;1.17;;
30613;SDS011;17381;51.690;5.270;2022-08-03T09:22:34;16.70;;;1.83;;
30613;SDS011;17381;51.690;5.270;2022-08-03T09:25:05;7.00;;;1.67;;
30613;SDS011;17381;51.690;5.270;2022-08-03T09:27:45;5.13;;;1.17;;
30613;SDS011;17381;51.690;5.270;2022-08-03T09:30:17;7.85;;;1.52;;
30613;SDS011;17381;51.690;5.270;2022-08-03T09:32:43;4.35;;;1.60;;
30613;SDS011;17381;51.690;5.270;2022-08-03T09:35:16;10.45;;;1.88;;
30613;SDS011;17381;51.690;5.270;2022-08-03T09:38:28;8.40;;;1.00;;
30613;SDS011;17381;51.690;5.270;2022-08-03T09:41:40;5.75;;;1.00;;
30613;SDS011;17381;51.690;5.270;2022-08-03T09:44:54;15.68;;;1.75;;
30613;SDS011;17381;51.690;5.270;2022-08-03T09:47:53;7.85;;;1.45;;
30613;SDS011;17381;51.690;5.270;2022-08-03T09:50:49;7.70;;;1.30;;
30613;SDS011;17381;51.690;5.270;2022-08-03T09:53:48;5.32;;;0.90;;
30613;SDS011;17381;51.690;5.270;2022-08-03T09:56:47;6.20;;;1.38;;
30613;SDS011;17381;51.690;5.270;2022-08-03T09:59:31;8.13;;;1.40;;
30613;SDS011;17381;51.690;5.270;2022-08-03T10:02:23;5.07;;;1.13;;
30613;SDS011;17381;51.690;5.270;2022-08-03T10:04:55;6.53;;;1.30;;
30613;SDS011;17381;51.690;5.270;2022-08-03T10:07:47;4.72;;;1.70;;
30613;SDS011;17381;51.690;5.270;2022-08-03T10:11:06;4.63;;;0.90;;
30613;SDS011;17381;51.690;5.270;2022-08-03T10:13:58;4.43;;;1.52;;
30613;SDS011;17381;51.690;5.270;2022-08-03T10:16:55;2.38;;;0.80;;
30613;SDS011;17381;51.690;5.270;2022-08-03T10:19:31;7.65;;;1.73;;
30613;SDS011;17381;51.690;5.270;2022-08-03T10:22:18;4.78;;;1.25;;
30613;SDS011;17381;51.690;5.270;2022-08-03T10:27:48;6.00;;;1.10;;
30613;SDS011;17381;51.690;5.270;2022-08-03T10:30:47;4.63;;;1.00;;
30613;SDS011;17381;51.690;5.270;2022-08-03T10:33:29;6.28;;;1.15;;
30613;SDS011;17381;51.690;5.270;2022-08-03T10:36:02;11.18;;;1.83;;
30613;SDS011;17381;51.690;5.270;2022-08-03T10:38:50;8.70;;;1.38;;
30613;SDS011;17381;51.690;5.270;2022-08-03T10:41:40;6.03;;;1.00;;
30613;SDS011;17381;51.690;5.270;2022-08-03T10:44:47;7.00;;;1.23;;
30613;SDS011;17381;51.690;5.270;2022-08-03T10:47:34;5.57;;;1.10;;
30613;SDS011;17381;51.690;5.270;2022-08-03T10:50:04;9.73;;;1.27;;
30613;SDS011;17381;51.690;5.270;2022-08-03T10:53:07;6.85;;;1.17;;
30613;SDS011;17381;51.690;5.270;2022-08-03T10:56:06;5.43;;;1.08;;
30613;SDS011;17381;51.690;5.270;2022-08-03T11:03:12;11.07;;;1.75;;
30613;SDS011;17381;51.690;5.270;2022-08-03T11:05:49;8.38;;;1.88;;
30613;SDS011;17381;51.690;5.270;2022-08-03T11:15:54;8.02;;;2.10;;
30613;SDS011;17381;51.690;5.270;2022-08-03T11:19:04;6.57;;;1.30;;
30613;SDS011;17381;51.690;5.270;2022-08-03T11:25:00;6.40;;;1.20;;
30613;SDS011;17381;51.690;5.270;2022-08-03T11:27:41;8.18;;;1.17;;
30613;SDS011;17381;51.690;5.270;2022-08-03T11:45:14;7.03;;;1.13;;
30613;SDS011;17381;51.690;5.270;2022-08-03T11:47:57;5.05;;;1.02;;
30613;SDS011;17381;51.690;5.270;2022-08-03T11:50:49;6.65;;;1.55;;
30613;SDS011;17381;51.690;5.270;2022-08-03T11:53:44;5.25;;;1.15;;
30613;SDS011;17381;51.690;5.270;2022-08-03T12:00:37;5.20;;;1.02;;
30613;SDS011;17381;51.690;5.270;2022-08-03T12:11:55;6.35;;;1.45;;
30613;SDS011;17381;51.690;5.270;2022-08-03T12:15:05;2.03;;;0.57;;
30613;SDS011;17381;51.690;5.270;2022-08-03T12:18:11;3.88;;;1.13;;
30613;SDS011;17381;51.690;5.270;2022-08-03T12:41:41;3.08;;;0.80;;
30613;SDS011;17381;51.690;5.270;2022-08-03T12:45:02;5.35;;;1.45;;
30613;SDS011;17381;51.690;5.270;2022-08-03T12:48:22;7.38;;;1.05;;
30613;SDS011;17381;51.690;5.270;2022-08-03T12:51:16;7.57;;;0.90;;
30613;SDS011;17381;51.690;5.270;2022-08-03T12:53:57;5.22;;;0.90;;
30613;SDS011;17381;51.690;5.270;2022-08-03T13:03:53;6.13;;;1.08;;
30613;SDS011;17381;51.690;5.270;2022-08-03T13:07:01;2.80;;;1.00;;
30613;SDS011;17381;51.690;5.270;2022-08-03T13:09:51;12.05;;;1.13;;
30613;SDS011;17381;51.690;5.270;2022-08-03T13:16:11;7.72;;;1.00;;
30613;SDS011;17381;51.690;5.270;2022-08-03T13:19:02;5.07;;;1.02;;
30613;SDS011;17381;51.690;5.270;2022-08-03T13:21:58;6.32;;;0.90;;
30613;SDS011;17381;51.690;5.270;2022-08-03T13:25:12;3.47;;;0.80;;
30613;SDS011;17381;51.690;5.270;2022-08-03T13:28:23;3.13;;;0.50;;
30613;SDS011;17381;51.690;5.270;2022-08-03T13:31:39;3.42;;;0.82;;
30613;SDS011;17381;51.690;5.270;2022-08-03T13:34:35;2.97;;;0.90;;
30613;SDS011;17381;51.690;5.270;2022-08-03T13:37:31;3.15;;;0.80;;
30613;SDS011;17381;51.690;5.270;2022-08-03T13:40:23;4.47;;;1.00;;
30613;SDS011;17381;51.690;5.270;2022-08-03T13:43:04;5.10;;;0.93;;
30613;SDS011;17381;51.690;5.270;2022-08-03T13:45:46;4.57;;;0.70;;
30613;SDS011;17381;51.690;5.270;2022-08-03T13:48:47;7.17;;;0.87;;
30613;SDS011;17381;51.690;5.270;2022-08-03T13:51:37;4.10;;;1.10;;
30613;SDS011;17381;51.690;5.270;2022-08-03T13:54:38;2.15;;;0.70;;
30613;SDS011;17381;51.690;5.270;2022-08-03T13:57:51;1.73;;;0.65;;
30613;SDS011;17381;51.690;5.270;2022-08-03T14:00:44;1.67;;;0.80;;
30613;SDS011;17381;51.690;5.270;2022-08-03T14:03:39;2.88;;;0.65;;
30613;SDS011;17381;51.690;5.270;2022-08-03T14:06:31;9.07;;;1.10;;
30613;SDS011;17381;51.690;5.270;2022-08-03T14:09:26;4.40;;;0.75;;
30613;SDS011;17381;51.690;5.270;2022-08-03T14:12:11;3.37;;;0.50;;
30613;SDS011;17381;51.690;5.270;2022-08-03T14:18:47;2.30;;;0.70;;
30613;SDS011;17381;51.690;5.270;2022-08-03T14:21:54;6.47;;;1.02;;
30613;SDS011;17381;51.690;5.270;2022-08-03T14:24:44;2.55;;;0.57;;
30613;SDS011;17381;51.690;5.270;2022-08-03T14:27:50;4.95;;;0.90;;
30613;SDS011;17381;51.690;5.270;2022-08-03T14:31:05;4.78;;;1.15;;
30613;SDS011;17381;51.690;5.270;2022-08-03T14:34:03;2.88;;;0.50;;
30613;SDS011;17381;51.690;5.270;2022-08-03T14:37:21;2.25;;;0.50;;
30613;SDS011;17381;51.690;5.270;2022-08-03T14:40:08;4.00;;;0.80;;
30613;SDS011;17381;51.690;5.270;2022-08-03T14:43:03;2.95;;;0.82;;
30613;SDS011;17381;51.690;5.270;2022-08-03T14:45:58;3.65;;;0.88;;
30613;SDS011;17381;51.690;5.270;2022-08-03T14:51:44;2.38;;;0.65;;
30613;SDS011;17381;51.690;5.270;2022-08-03T14:54:41;2.67;;;0.70;;
30613;SDS011;17381;51.690;5.270;2022-08-03T14:57:37;5.57;;;0.95;;
30613;SDS011;17381;51.690;5.270;2022-08-03T15:00:44;4.85;;;0.55;;
30613;SDS011;17381;51.690;5.270;2022-08-03T15:03:39;5.00;;;1.13;;
30613;SDS011;17381;51.690;5.270;2022-08-03T15:06:37;3.97;;;1.00;;
30613;SDS011;17381;51.690;5.270;2022-08-03T15:09:19;3.65;;;0.68;;
30613;SDS011;17381;51.690;5.270;2022-08-03T15:12:11;2.83;;;0.80;;
30613;SDS011;17381;51.690;5.270;2022-08-03T15:14:55;1.45;;;0.50;;
30613;SDS011;17381;51.690;5.270;2022-08-03T15:17:47;1.70;;;0.50;;
30613;SDS011;17381;51.690;5.270;2022-08-03T15:20:35;5.53;;;1.00;;
30613;SDS011;17381;51.690;5.270;2022-08-03T15:23:29;4.68;;;0.50;;
30613;SDS011;17381;51.690;5.270;2022-08-03T15:26:32;3.35;;;0.50;;
30613;SDS011;17381;51.690;5.270;2022-08-03T15:29:14;2.00;;;0.50;;
30613;SDS011;17381;51.690;5.270;2022-08-03T15:31:51;3.03;;;0.68;;
30613;SDS011;17381;51.690;5.270;2022-08-03T15:35:07;3.97;;;0.65;;
30613;SDS011;17381;51.690;5.270;2022-08-03T15:38:19;16.88;;;1.10;;
30613;SDS011;17381;51.690;5.270;2022-08-03T15:41:20;2.03;;;0.68;;
30613;SDS011;17381;51.690;5.270;2022-08-03T15:44:10;5.82;;;0.95;;
30613;SDS011;17381;51.690;5.270;2022-08-03T15:46:54;4.05;;;1.02;;
30613;SDS011;17381;51.690;5.270;2022-08-03T15:49:53;5.63;;;1.02;;
30613;SDS011;17381;51.690;5.270;2022-08-03T15:53:03;4.97;;;1.10;;
30613;SDS011;17381;51.690;5.270;2022-08-03T15:55:50;2.38;;;0.82;;
30613;SDS011;17381;51.690;5.270;2022-08-03T15:58:40;5.53;;;1.00;;
30613;SDS011;17381;51.690;5.270;2022-08-03T16:01:28;3.38;;;0.82;;
30613;SDS011;17381;51.690;5.270;2022-08-03T16:04:17;9.10;;;0.80;;
30613;SDS011;17381;51.690;5.270;2022-08-03T16:07:37;4.57;;;0.68;;
30613;SDS011;17381;51.690;5.270;2022-08-03T16:10:23;2.92;;;0.60;;
30613;SDS011;17381;51.690;5.270;2022-08-03T16:13:28;4.80;;;0.77;;
30613;SDS011;17381;51.690;5.270;2022-08-03T16:16:11;8.98;;;0.88;;
30613;SDS011;17381;51.690;5.270;2022-08-03T16:19:04;2.08;;;0.63;;
30613;SDS011;17381;51.690;5.270;2022-08-03T16:21:46;3.30;;;0.70;;
30613;SDS011;17381;51.690;5.270;2022-08-03T16:27:59;4.35;;;0.95;;
30613;SDS011;17381;51.690;5.270;2022-08-03T16:30:43;3.92;;;0.63;;
30613;SDS011;17381;51.690;5.270;2022-08-03T16:33:31;1.45;;;0.45;;
30613;SDS011;17381;51.690;5.270;2022-08-03T16:36:48;2.25;;;0.50;;
30613;SDS011;17381;51.690;5.270;2022-08-03T16:39:54;3.33;;;0.77;;
30613;SDS011;17381;51.690;5.270;2022-08-03T16:43:15;6.93;;;1.40;;
30613;SDS011;17381;51.690;5.270;2022-08-03T16:46:06;5.55;;;0.85;;
30613;SDS011;17381;51.690;5.270;2022-08-03T16:49:01;2.85;;;0.90;;
30613;SDS011;17381;51.690;5.270;2022-08-03T16:52:05;2.03;;;0.60;;
30613;SDS011;17381;51.690;5.270;2022-08-03T17:09:41;7.70;;;1.23;;
30613;SDS011;17381;51.690;5.270;2022-08-03T17:12:34;5.10;;;0.85;;
30613;SDS011;17381;51.690;5.270;2022-08-03T17:15:43;3.72;;;0.73;;
30613;SDS011;17381;51.690;5.270;2022-08-03T17:18:56;2.83;;;0.68;;
30613;SDS011;17381;51.690;5.270;2022-08-03T17:22:16;4.68;;;1.10;;
30613;SDS011;17381;51.690;5.270;2022-08-03T17:25:19;4.55;;;0.82;;
30613;SDS011;17381;51.690;5.270;2022-08-03T17:28:10;3.00;;;0.70;;
30613;SDS011;17381;51.690;5.270;2022-08-03T17:31:05;5.55;;;0.93;;
30613;SDS011;17381;51.690;5.270;2022-08-03T17:41:08;3.90;;;1.30;;
30613;SDS011;17381;51.690;5.270;2022-08-03T17:51:40;3.08;;;0.73;;
30613;SDS011;17381;51.690;5.270;2022-08-03T17:58:23;5.00;;;1.35;;
30613;SDS011;17381;51.690;5.270;2022-08-03T18:01:22;6.20;;;0.90;;
30613;SDS011;17381;51.690;5.270;2022-08-03T18:04:37;6.28;;;0.93;;
30613;SDS011;17381;51.690;5.270;2022-08-03T18:07:35;5.05;;;0.93;;
30613;SDS011;17381;51.690;5.270;2022-08-03T18:10:26;3.15;;;0.90;;
30613;SDS011;17381;51.690;5.270;2022-08-03T18:24:09;4.82;;;1.20;;
30613;SDS011;17381;51.690;5.270;2022-08-03T18:33:48;3.50;;;0.85;;
30613;SDS011;17381;51.690;5.270;2022-08-03T18:36:57;2.90;;;0.85;;
30613;SDS011;17381;51.690;5.270;2022-08-03T18:39:57;3.88;;;1.10;;
30613;SDS011;17381;51.690;5.270;2022-08-03T18:46:13;4.40;;;0.80;;
30613;SDS011;17381;51.690;5.270;2022-08-03T18:57:05;3.65;;;0.88;;
30613;SDS011;17381;51.690;5.270;2022-08-03T19:15:09;2.92;;;0.77;;
30613;SDS011;17381;51.690;5.270;2022-08-03T19:17:55;7.60;;;1.60;;
30613;SDS011;17381;51.690;5.270;2022-08-03T19:24:20;3.42;;;0.85;;
30613;SDS011;17381;51.690;5.270;2022-08-03T19:27:21;5.57;;;1.20;;
30613;SDS011;17381;51.690;5.270;2022-08-03T19:30:22;1.88;;;0.60;;
30613;SDS011;17381;51.690;5.270;2022-08-03T19:39:45;3.28;;;0.75;;
30613;SDS011;17381;51.690;5.270;2022-08-03T19:57:45;5.32;;;1.00;;
30613;SDS011;17381;51.690;5.270;2022-08-03T20:00:39;3.85;;;1.15;;
30613;SDS011;17381;51.690;5.270;2022-08-03T20:03:32;1.85;;;0.80;;
30613;SDS011;17381;51.690;5.270;2022-08-03T20:06:26;2.78;;;0.90;;
30613;SDS011;17381;51.690;5.270;2022-08-03T20:09:08;3.05;;;0.85;;
30613;SDS011;17381;51.690;5.270;2022-08-03T20:15:10;6.13;;;0.57;;
30613;SDS011;17381;51.690;5.270;2022-08-03T20:18:06;4.65;;;1.08;;
30613;SDS011;17381;51.690;5.270;2022-08-03T20:20:54;4.80;;;1.02;;
30613;SDS011;17381;51.690;5.270;2022-08-03T20:34:27;3.40;;;1.23;;
30613;SDS011;17381;51.690;5.270;2022-08-03T20:41:17;2.78;;;0.90;;
30613;SDS011;17381;51.690;5.270;2022-08-03T20:44:44;3.17;;;0.95;;
30613;SDS011;17381;51.690;5.270;2022-08-03T20:47:48;4.82;;;1.45;;
30613;SDS011;17381;51.690;5.270;2022-08-03T21:54:15;3.55;;;0.77;;
30613;SDS011;17381;51.690;5.270;2022-08-03T22:07:36;3.47;;;0.93;;
30613;SDS011;17381;51.690;5.270;2022-08-03T22:10:16;1.92;;;0.88;;
30613;SDS011;17381;51.690;5.270;2022-08-03T22:32:10;3.53;;;1.42;;
30613;SDS011;17381;51.690;5.270;2022-08-03T22:38:26;2.58;;;1.13;;
30613;SDS011;17381;51.690;5.270;2022-08-03T22:41:22;3.42;;;1.25;;
30613;SDS011;17381;51.690;5.270;2022-08-03T22:51:07;4.43;;;1.33;;
30613;SDS011;17381;51.690;5.270;2022-08-03T22:54:00;4.82;;;1.02;;
30613;SDS011;17381;51.690;5.270;2022-08-03T22:57:02;3.25;;;1.00;;
30613;SDS011;17381;51.690;5.270;2022-08-03T23:06:32;2.80;;;1.02;;
30613;SDS011;17381;51.690;5.270;2022-08-03T23:19:54;6.30;;;1.13;;
30613;SDS011;17381;51.690;5.270;2022-08-03T23:33:15;3.85;;;1.27;;
30613;SDS011;17381;51.690;5.270;2022-08-03T23:36:34;4.15;;;1.30;;
30613;SDS011;17381;51.690;5.270;2022-08-03T23:39:29;2.72;;;1.40;;
